sensor_id;sensor_type;location;lat;lon;timestamp;P1;durP1;ratioP1;P2;durP2;ratioP2
12363;SDS011;6246;50.826;4.712;2022-08-19T00:00:16;9.48;;;8.57;;
12363;SDS011;6246;50.826;4.712;2022-08-19T00:02:43;8.73;;;7.88;;
12363;SDS011;6246;50.826;4.712;2022-08-19T00:05:11;8.23;;;7.50;;
12363;SDS011;6246;50.826;4.712;2022-08-19T00:07:37;9.27;;;7.68;;
12363;SDS011;6246;50.826;4.712;2022-08-19T00:10:06;9.35;;;7.05;;
12363;SDS011;6246;50.826;4.712;2022-08-19T00:12:32;8.32;;;6.90;;
12363;SDS011;6246;50.826;4.712;2022-08-19T00:14:59;7.43;;;6.72;;
12363;SDS011;6246;50.826;4.712;2022-08-19T00:17:25;9.93;;;6.85;;
12363;SDS011;6246;50.826;4.712;2022-08-19T00:19:51;7.35;;;6.68;;
12363;SDS011;6246;50.826;4.712;2022-08-19T00:22:17;7.40;;;6.70;;
12363;SDS011;6246;50.826;4.712;2022-08-19T00:24:44;7.70;;;6.55;;
12363;SDS011;6246;50.826;4.712;2022-08-19T00:27:10;6.80;;;6.20;;
12363;SDS011;6246;50.826;4.712;2022-08-19T00:29:37;7.00;;;6.35;;
12363;SDS011;6246;50.826;4.712;2022-08-19T00:32:03;7.38;;;6.30;;
12363;SDS011;6246;50.826;4.712;2022-08-19T00:34:29;6.72;;;6.00;;
12363;SDS011;6246;50.826;4.712;2022-08-19T00:36:56;6.65;;;6.03;;
12363;SDS011;6246;50.826;4.712;2022-08-19T00:39:22;7.63;;;6.10;;
12363;SDS011;6246;50.826;4.712;2022-08-19T00:41:49;6.07;;;5.57;;
12363;SDS011;6246;50.826;4.712;2022-08-19T00:44:19;6.68;;;6.07;;
12363;SDS011;6246;50.826;4.712;2022-08-19T00:46:46;6.57;;;5.97;;
12363;SDS011;6246;50.826;4.712;2022-08-19T00:49:14;6.60;;;5.95;;
12363;SDS011;6246;50.826;4.712;2022-08-19T00:51:42;6.55;;;5.90;;
12363;SDS011;6246;50.826;4.712;2022-08-19T00:54:09;6.53;;;5.93;;
12363;SDS011;6246;50.826;4.712;2022-08-19T00:56:36;7.13;;;6.43;;
12363;SDS011;6246;50.826;4.712;2022-08-19T00:59:02;6.88;;;6.18;;
12363;SDS011;6246;50.826;4.712;2022-08-19T01:01:33;6.40;;;5.85;;
12363;SDS011;6246;50.826;4.712;2022-08-19T01:03:59;6.70;;;6.13;;
12363;SDS011;6246;50.826;4.712;2022-08-19T01:06:26;7.07;;;6.47;;
12363;SDS011;6246;50.826;4.712;2022-08-19T01:08:52;8.15;;;6.85;;
12363;SDS011;6246;50.826;4.712;2022-08-19T01:11:19;6.82;;;6.05;;
12363;SDS011;6246;50.826;4.712;2022-08-19T01:13:45;7.05;;;6.43;;
12363;SDS011;6246;50.826;4.712;2022-08-19T01:16:11;6.63;;;6.00;;
12363;SDS011;6246;50.826;4.712;2022-08-19T01:18:39;7.00;;;6.20;;
12363;SDS011;6246;50.826;4.712;2022-08-19T01:21:09;6.50;;;5.90;;
12363;SDS011;6246;50.826;4.712;2022-08-19T01:23:35;10.77;;;5.72;;
12363;SDS011;6246;50.826;4.712;2022-08-19T01:26:09;7.30;;;6.57;;
12363;SDS011;6246;50.826;4.712;2022-08-19T01:28:35;6.57;;;5.97;;
12363;SDS011;6246;50.826;4.712;2022-08-19T01:31:03;6.47;;;5.88;;
12363;SDS011;6246;50.826;4.712;2022-08-19T01:33:29;7.43;;;6.50;;
12363;SDS011;6246;50.826;4.712;2022-08-19T01:36:21;7.75;;;6.50;;
12363;SDS011;6246;50.826;4.712;2022-08-19T01:38:42;8.82;;;7.13;;
12363;SDS011;6246;50.826;4.712;2022-08-19T01:41:10;10.48;;;7.28;;
12363;SDS011;6246;50.826;4.712;2022-08-19T01:43:36;8.57;;;7.32;;
12363;SDS011;6246;50.826;4.712;2022-08-19T01:46:03;8.43;;;7.55;;
12363;SDS011;6246;50.826;4.712;2022-08-19T01:48:36;9.10;;;7.45;;
12363;SDS011;6246;50.826;4.712;2022-08-19T01:51:03;8.43;;;7.38;;
12363;SDS011;6246;50.826;4.712;2022-08-19T01:53:29;8.90;;;7.45;;
12363;SDS011;6246;50.826;4.712;2022-08-19T01:55:55;10.80;;;7.05;;
12363;SDS011;6246;50.826;4.712;2022-08-19T01:58:22;8.48;;;7.35;;
12363;SDS011;6246;50.826;4.712;2022-08-19T02:00:50;9.20;;;7.80;;
12363;SDS011;6246;50.826;4.712;2022-08-19T02:03:16;11.05;;;7.93;;
12363;SDS011;6246;50.826;4.712;2022-08-19T02:05:43;8.00;;;7.20;;
12363;SDS011;6246;50.826;4.712;2022-08-19T02:08:10;10.38;;;7.93;;
12363;SDS011;6246;50.826;4.712;2022-08-19T02:10:41;8.93;;;8.02;;
12363;SDS011;6246;50.826;4.712;2022-08-19T02:13:07;9.43;;;8.07;;
12363;SDS011;6246;50.826;4.712;2022-08-19T02:15:33;11.02;;;8.18;;
12363;SDS011;6246;50.826;4.712;2022-08-19T02:17:59;9.25;;;8.38;;
12363;SDS011;6246;50.826;4.712;2022-08-19T02:20:25;11.10;;;8.02;;
12363;SDS011;6246;50.826;4.712;2022-08-19T02:22:51;9.25;;;7.85;;
12363;SDS011;6246;50.826;4.712;2022-08-19T02:25:17;9.38;;;8.38;;
12363;SDS011;6246;50.826;4.712;2022-08-19T02:27:43;10.45;;;7.95;;
12363;SDS011;6246;50.826;4.712;2022-08-19T02:30:13;9.18;;;8.23;;
12363;SDS011;6246;50.826;4.712;2022-08-19T02:32:40;10.45;;;8.65;;
12363;SDS011;6246;50.826;4.712;2022-08-19T02:35:07;12.45;;;7.93;;
12363;SDS011;6246;50.826;4.712;2022-08-19T02:37:33;8.75;;;7.85;;
12363;SDS011;6246;50.826;4.712;2022-08-19T02:40:18;11.00;;;7.88;;
12363;SDS011;6246;50.826;4.712;2022-08-19T02:42:44;9.40;;;7.32;;
12363;SDS011;6246;50.826;4.712;2022-08-19T02:45:13;8.30;;;7.47;;
12363;SDS011;6246;50.826;4.712;2022-08-19T02:47:40;10.32;;;8.20;;
12363;SDS011;6246;50.826;4.712;2022-08-19T02:50:06;10.70;;;8.45;;
12363;SDS011;6246;50.826;4.712;2022-08-19T02:52:33;12.93;;;9.00;;
12363;SDS011;6246;50.826;4.712;2022-08-19T02:54:59;9.50;;;8.60;;
12363;SDS011;6246;50.826;4.712;2022-08-19T02:57:25;10.23;;;9.20;;
12363;SDS011;6246;50.826;4.712;2022-08-19T02:59:52;9.75;;;8.75;;
12363;SDS011;6246;50.826;4.712;2022-08-19T03:02:18;11.73;;;9.05;;
12363;SDS011;6246;50.826;4.712;2022-08-19T03:04:44;12.43;;;9.30;;
12363;SDS011;6246;50.826;4.712;2022-08-19T03:07:15;11.38;;;9.80;;
12363;SDS011;6246;50.826;4.712;2022-08-19T03:09:41;9.88;;;8.82;;
12363;SDS011;6246;50.826;4.712;2022-08-19T03:12:07;12.07;;;9.10;;
12363;SDS011;6246;50.826;4.712;2022-08-19T03:14:34;11.88;;;10.05;;
12363;SDS011;6246;50.826;4.712;2022-08-19T03:17:00;11.50;;;10.18;;
12363;SDS011;6246;50.826;4.712;2022-08-19T03:19:28;14.57;;;10.95;;
12363;SDS011;6246;50.826;4.712;2022-08-19T03:21:54;10.95;;;9.68;;
12363;SDS011;6246;50.826;4.712;2022-08-19T03:24:20;11.20;;;9.75;;
12363;SDS011;6246;50.826;4.712;2022-08-19T03:26:48;12.52;;;9.93;;
12363;SDS011;6246;50.826;4.712;2022-08-19T03:29:14;13.43;;;10.68;;
12363;SDS011;6246;50.826;4.712;2022-08-19T03:31:41;14.68;;;9.13;;
12363;SDS011;6246;50.826;4.712;2022-08-19T03:34:08;12.05;;;10.27;;
12363;SDS011;6246;50.826;4.712;2022-08-19T03:36:34;13.18;;;9.60;;
12363;SDS011;6246;50.826;4.712;2022-08-19T03:39:01;13.73;;;10.60;;
12363;SDS011;6246;50.826;4.712;2022-08-19T03:41:28;17.15;;;13.32;;
12363;SDS011;6246;50.826;4.712;2022-08-19T03:43:55;20.80;;;14.77;;
12363;SDS011;6246;50.826;4.712;2022-08-19T03:46:23;20.92;;;14.27;;
12363;SDS011;6246;50.826;4.712;2022-08-19T03:48:51;17.27;;;13.50;;
12363;SDS011;6246;50.826;4.712;2022-08-19T03:51:22;17.17;;;13.40;;
12363;SDS011;6246;50.826;4.712;2022-08-19T03:53:49;16.93;;;13.63;;
12363;SDS011;6246;50.826;4.712;2022-08-19T03:56:16;19.37;;;13.47;;
12363;SDS011;6246;50.826;4.712;2022-08-19T03:58:42;15.90;;;12.27;;
12363;SDS011;6246;50.826;4.712;2022-08-19T04:01:09;15.35;;;11.27;;
12363;SDS011;6246;50.826;4.712;2022-08-19T04:03:36;15.07;;;11.73;;
12363;SDS011;6246;50.826;4.712;2022-08-19T04:06:36;13.50;;;11.53;;
12363;SDS011;6246;50.826;4.712;2022-08-19T04:08:55;13.80;;;11.05;;
12363;SDS011;6246;50.826;4.712;2022-08-19T04:11:24;11.77;;;10.20;;
12363;SDS011;6246;50.826;4.712;2022-08-19T04:13:50;14.40;;;11.23;;
12363;SDS011;6246;50.826;4.712;2022-08-19T04:16:17;12.03;;;10.33;;
12363;SDS011;6246;50.826;4.712;2022-08-19T04:18:45;13.60;;;11.30;;
12363;SDS011;6246;50.826;4.712;2022-08-19T04:21:15;13.33;;;10.47;;
12363;SDS011;6246;50.826;4.712;2022-08-19T04:23:41;13.53;;;10.47;;
12363;SDS011;6246;50.826;4.712;2022-08-19T04:26:11;12.97;;;10.73;;
12363;SDS011;6246;50.826;4.712;2022-08-19T04:28:37;13.67;;;10.80;;
12363;SDS011;6246;50.826;4.712;2022-08-19T04:31:04;13.10;;;10.57;;
12363;SDS011;6246;50.826;4.712;2022-08-19T04:33:30;12.67;;;10.13;;
12363;SDS011;6246;50.826;4.712;2022-08-19T04:35:56;13.97;;;11.23;;
12363;SDS011;6246;50.826;4.712;2022-08-19T04:38:23;13.53;;;10.43;;
12363;SDS011;6246;50.826;4.712;2022-08-19T04:40:49;12.93;;;11.33;;
12363;SDS011;6246;50.826;4.712;2022-08-19T04:43:35;12.27;;;10.87;;
12363;SDS011;6246;50.826;4.712;2022-08-19T04:46:05;12.10;;;10.80;;
12363;SDS011;6246;50.826;4.712;2022-08-19T04:48:31;12.20;;;10.82;;
12363;SDS011;6246;50.826;4.712;2022-08-19T04:50:57;12.43;;;10.90;;
12363;SDS011;6246;50.826;4.712;2022-08-19T04:53:27;13.37;;;10.70;;
12363;SDS011;6246;50.826;4.712;2022-08-19T04:56:03;12.93;;;11.00;;
12363;SDS011;6246;50.826;4.712;2022-08-19T04:58:30;13.53;;;11.20;;
12363;SDS011;6246;50.826;4.712;2022-08-19T05:00:56;12.50;;;10.90;;
12363;SDS011;6246;50.826;4.712;2022-08-19T05:03:24;12.97;;;11.30;;
12363;SDS011;6246;50.826;4.712;2022-08-19T05:05:50;13.80;;;10.77;;
12363;SDS011;6246;50.826;4.712;2022-08-19T05:08:17;17.93;;;10.70;;
12363;SDS011;6246;50.826;4.712;2022-08-19T05:10:45;14.77;;;10.47;;
12363;SDS011;6246;50.826;4.712;2022-08-19T05:13:11;12.57;;;10.70;;
12363;SDS011;6246;50.826;4.712;2022-08-19T05:15:38;14.13;;;10.97;;
12363;SDS011;6246;50.826;4.712;2022-08-19T05:18:04;13.10;;;10.20;;
12363;SDS011;6246;50.826;4.712;2022-08-19T05:21:01;13.77;;;10.80;;
12363;SDS011;6246;50.826;4.712;2022-08-19T05:23:49;13.93;;;11.47;;
12363;SDS011;6246;50.826;4.712;2022-08-19T05:26:15;16.13;;;10.93;;
12363;SDS011;6246;50.826;4.712;2022-08-19T05:28:41;14.33;;;11.23;;
12363;SDS011;6246;50.826;4.712;2022-08-19T05:31:07;14.57;;;11.17;;
12363;SDS011;6246;50.826;4.712;2022-08-19T05:33:33;14.37;;;11.03;;
12363;SDS011;6246;50.826;4.712;2022-08-19T05:36:00;15.07;;;11.03;;
12363;SDS011;6246;50.826;4.712;2022-08-19T05:38:26;14.43;;;11.30;;
12363;SDS011;6246;50.826;4.712;2022-08-19T05:40:53;13.57;;;10.90;;
12363;SDS011;6246;50.826;4.712;2022-08-19T05:43:19;12.77;;;10.60;;
12363;SDS011;6246;50.826;4.712;2022-08-19T05:45:45;14.13;;;10.67;;
12363;SDS011;6246;50.826;4.712;2022-08-19T05:48:11;16.20;;;11.00;;
12363;SDS011;6246;50.826;4.712;2022-08-19T05:50:38;14.67;;;11.17;;
12363;SDS011;6246;50.826;4.712;2022-08-19T05:53:05;14.50;;;11.80;;
12363;SDS011;6246;50.826;4.712;2022-08-19T05:55:31;15.63;;;11.10;;
12363;SDS011;6246;50.826;4.712;2022-08-19T05:57:57;14.13;;;11.73;;
12363;SDS011;6246;50.826;4.712;2022-08-19T06:00:24;13.30;;;11.20;;
12363;SDS011;6246;50.826;4.712;2022-08-19T06:02:50;15.93;;;10.83;;
12363;SDS011;6246;50.826;4.712;2022-08-19T06:05:16;14.83;;;10.93;;
12363;SDS011;6246;50.826;4.712;2022-08-19T06:07:42;15.20;;;11.27;;
12363;SDS011;6246;50.826;4.712;2022-08-19T06:10:09;15.13;;;10.83;;
12363;SDS011;6246;50.826;4.712;2022-08-19T06:12:36;15.53;;;10.93;;
12363;SDS011;6246;50.826;4.712;2022-08-19T06:15:04;13.60;;;11.13;;
12363;SDS011;6246;50.826;4.712;2022-08-19T06:17:30;14.67;;;11.00;;
12363;SDS011;6246;50.826;4.712;2022-08-19T06:19:57;13.30;;;10.67;;
12363;SDS011;6246;50.826;4.712;2022-08-19T06:22:23;14.70;;;10.93;;
12363;SDS011;6246;50.826;4.712;2022-08-19T06:24:49;13.50;;;10.50;;
12363;SDS011;6246;50.826;4.712;2022-08-19T06:27:17;12.57;;;10.70;;
12363;SDS011;6246;50.826;4.712;2022-08-19T06:29:43;11.43;;;9.80;;
12363;SDS011;6246;50.826;4.712;2022-08-19T06:32:11;14.30;;;9.93;;
12363;SDS011;6246;50.826;4.712;2022-08-19T06:34:37;12.43;;;9.43;;
12363;SDS011;6246;50.826;4.712;2022-08-19T06:37:04;12.93;;;9.40;;
12363;SDS011;6246;50.826;4.712;2022-08-19T06:39:33;11.23;;;9.48;;
12363;SDS011;6246;50.826;4.712;2022-08-19T06:41:59;10.70;;;8.47;;
12363;SDS011;6246;50.826;4.712;2022-08-19T06:44:27;11.00;;;8.57;;
12363;SDS011;6246;50.826;4.712;2022-08-19T06:46:54;11.87;;;8.27;;
12363;SDS011;6246;50.826;4.712;2022-08-19T06:49:20;11.13;;;8.83;;
12363;SDS011;6246;50.826;4.712;2022-08-19T06:51:47;10.60;;;8.30;;
12363;SDS011;6246;50.826;4.712;2022-08-19T06:54:14;11.27;;;7.95;;
12363;SDS011;6246;50.826;4.712;2022-08-19T06:56:40;11.43;;;7.63;;
12363;SDS011;6246;50.826;4.712;2022-08-19T06:59:12;12.37;;;7.70;;
12363;SDS011;6246;50.826;4.712;2022-08-19T07:01:43;16.98;;;8.10;;
12363;SDS011;6246;50.826;4.712;2022-08-19T07:04:12;10.07;;;7.17;;
12363;SDS011;6246;50.826;4.712;2022-08-19T07:06:39;9.13;;;6.97;;
12363;SDS011;6246;50.826;4.712;2022-08-19T07:09:06;9.83;;;6.40;;
12363;SDS011;6246;50.826;4.712;2022-08-19T07:11:32;11.43;;;6.60;;
12363;SDS011;6246;50.826;4.712;2022-08-19T07:13:59;11.17;;;6.37;;
12363;SDS011;6246;50.826;4.712;2022-08-19T07:16:25;8.93;;;6.03;;
12363;SDS011;6246;50.826;4.712;2022-08-19T07:18:51;7.75;;;6.05;;
12363;SDS011;6246;50.826;4.712;2022-08-19T07:21:19;8.88;;;5.93;;
12363;SDS011;6246;50.826;4.712;2022-08-19T07:23:46;8.27;;;6.00;;
12363;SDS011;6246;50.826;4.712;2022-08-19T07:26:18;9.87;;;6.10;;
12363;SDS011;6246;50.826;4.712;2022-08-19T07:28:45;8.48;;;5.30;;
12363;SDS011;6246;50.826;4.712;2022-08-19T07:31:12;6.20;;;4.97;;
12363;SDS011;6246;50.826;4.712;2022-08-19T07:33:39;9.50;;;5.50;;
12363;SDS011;6246;50.826;4.712;2022-08-19T07:36:08;6.18;;;5.20;;
12363;SDS011;6246;50.826;4.712;2022-08-19T07:38:36;8.23;;;5.00;;
12363;SDS011;6246;50.826;4.712;2022-08-19T07:41:03;9.20;;;5.55;;
12363;SDS011;6246;50.826;4.712;2022-08-19T07:43:29;6.28;;;5.10;;
12363;SDS011;6246;50.826;4.712;2022-08-19T07:45:55;6.45;;;5.10;;
12363;SDS011;6246;50.826;4.712;2022-08-19T07:48:23;5.65;;;4.85;;
12363;SDS011;6246;50.826;4.712;2022-08-19T07:50:51;6.15;;;4.88;;
12363;SDS011;6246;50.826;4.712;2022-08-19T07:53:18;6.90;;;4.65;;
12363;SDS011;6246;50.826;4.712;2022-08-19T07:55:44;5.22;;;4.63;;
12363;SDS011;6246;50.826;4.712;2022-08-19T07:58:12;8.65;;;4.55;;
12363;SDS011;6246;50.826;4.712;2022-08-19T08:00:38;4.70;;;4.30;;
12363;SDS011;6246;50.826;4.712;2022-08-19T08:03:05;6.25;;;4.50;;
12363;SDS011;6246;50.826;4.712;2022-08-19T08:05:31;7.75;;;4.40;;
12363;SDS011;6246;50.826;4.712;2022-08-19T08:08:15;9.18;;;4.45;;
12363;SDS011;6246;50.826;4.712;2022-08-19T08:11:07;4.65;;;3.88;;
12363;SDS011;6246;50.826;4.712;2022-08-19T08:13:34;4.32;;;3.92;;
12363;SDS011;6246;50.826;4.712;2022-08-19T08:16:00;5.28;;;4.47;;
12363;SDS011;6246;50.826;4.712;2022-08-19T08:18:27;5.80;;;4.05;;
12363;SDS011;6246;50.826;4.712;2022-08-19T08:20:53;5.65;;;3.60;;
12363;SDS011;6246;50.826;4.712;2022-08-19T08:23:19;5.25;;;3.80;;
12363;SDS011;6246;50.826;4.712;2022-08-19T08:25:50;4.35;;;3.95;;
12363;SDS011;6246;50.826;4.712;2022-08-19T08:28:17;7.30;;;3.65;;
12363;SDS011;6246;50.826;4.712;2022-08-19T08:30:43;5.38;;;3.88;;
12363;SDS011;6246;50.826;4.712;2022-08-19T08:33:10;4.97;;;3.72;;
12363;SDS011;6246;50.826;4.712;2022-08-19T08:35:36;4.88;;;3.70;;
12363;SDS011;6246;50.826;4.712;2022-08-19T08:38:03;4.35;;;3.78;;
12363;SDS011;6246;50.826;4.712;2022-08-19T08:40:34;4.28;;;3.65;;
12363;SDS011;6246;50.826;4.712;2022-08-19T08:43:06;5.22;;;4.13;;
12363;SDS011;6246;50.826;4.712;2022-08-19T08:45:33;5.30;;;3.80;;
12363;SDS011;6246;50.826;4.712;2022-08-19T08:48:02;6.63;;;3.83;;
12363;SDS011;6246;50.826;4.712;2022-08-19T08:50:32;8.18;;;4.10;;
12363;SDS011;6246;50.826;4.712;2022-08-19T08:53:03;4.63;;;3.67;;
12363;SDS011;6246;50.826;4.712;2022-08-19T08:55:30;5.43;;;3.47;;
12363;SDS011;6246;50.826;4.712;2022-08-19T08:58:06;8.85;;;4.00;;
12363;SDS011;6246;50.826;4.712;2022-08-19T09:00:34;4.55;;;3.45;;
12363;SDS011;6246;50.826;4.712;2022-08-19T09:03:00;4.25;;;3.40;;
12363;SDS011;6246;50.826;4.712;2022-08-19T09:05:36;4.93;;;3.80;;
12363;SDS011;6246;50.826;4.712;2022-08-19T09:08:08;4.05;;;3.45;;
12363;SDS011;6246;50.826;4.712;2022-08-19T09:10:40;6.32;;;3.90;;
12363;SDS011;6246;50.826;4.712;2022-08-19T09:15:45;3.83;;;3.53;;
12363;SDS011;6246;50.826;4.712;2022-08-19T09:18:13;4.90;;;3.95;;
12363;SDS011;6246;50.826;4.712;2022-08-19T09:20:39;6.72;;;3.78;;
12363;SDS011;6246;50.826;4.712;2022-08-19T09:23:05;4.03;;;3.60;;
12363;SDS011;6246;50.826;4.712;2022-08-19T09:25:31;3.90;;;3.60;;
12363;SDS011;6246;50.826;4.712;2022-08-19T09:27:59;5.57;;;3.42;;
12363;SDS011;6246;50.826;4.712;2022-08-19T09:30:30;3.88;;;3.55;;
12363;SDS011;6246;50.826;4.712;2022-08-19T09:32:57;5.38;;;3.17;;
12363;SDS011;6246;50.826;4.712;2022-08-19T09:35:25;3.67;;;3.20;;
12363;SDS011;6246;50.826;4.712;2022-08-19T09:37:51;3.92;;;3.55;;
12363;SDS011;6246;50.826;4.712;2022-08-19T09:40:18;3.72;;;3.40;;
12363;SDS011;6246;50.826;4.712;2022-08-19T09:42:45;3.92;;;3.42;;
12363;SDS011;6246;50.826;4.712;2022-08-19T09:45:12;4.03;;;3.08;;
12363;SDS011;6246;50.826;4.712;2022-08-19T09:47:38;5.25;;;3.47;;
12363;SDS011;6246;50.826;4.712;2022-08-19T09:50:05;6.53;;;3.50;;
12363;SDS011;6246;50.826;4.712;2022-08-19T09:52:32;5.05;;;3.20;;
12363;SDS011;6246;50.826;4.712;2022-08-19T09:54:58;4.20;;;3.13;;
12363;SDS011;6246;50.826;4.712;2022-08-19T09:57:24;5.65;;;3.63;;
12363;SDS011;6246;50.826;4.712;2022-08-19T09:59:50;6.53;;;3.60;;
12363;SDS011;6246;50.826;4.712;2022-08-19T10:02:16;4.53;;;3.13;;
12363;SDS011;6246;50.826;4.712;2022-08-19T10:04:42;6.40;;;3.20;;
12363;SDS011;6246;50.826;4.712;2022-08-19T10:07:28;5.78;;;3.50;;
12363;SDS011;6246;50.826;4.712;2022-08-19T10:09:55;5.50;;;3.22;;
12363;SDS011;6246;50.826;4.712;2022-08-19T10:12:21;9.27;;;3.45;;
12363;SDS011;6246;50.826;4.712;2022-08-19T10:14:47;5.18;;;3.30;;
12363;SDS011;6246;50.826;4.712;2022-08-19T10:17:16;3.55;;;3.20;;
12363;SDS011;6246;50.826;4.712;2022-08-19T10:19:42;4.97;;;2.90;;
12363;SDS011;6246;50.826;4.712;2022-08-19T10:22:09;6.30;;;3.63;;
12363;SDS011;6246;50.826;4.712;2022-08-19T10:24:39;4.72;;;3.20;;
12363;SDS011;6246;50.826;4.712;2022-08-19T10:27:06;3.33;;;3.05;;
12363;SDS011;6246;50.826;4.712;2022-08-19T10:29:32;3.65;;;2.78;;
12363;SDS011;6246;50.826;4.712;2022-08-19T10:32:02;5.43;;;3.53;;
12363;SDS011;6246;50.826;4.712;2022-08-19T10:34:30;3.40;;;3.10;;
12363;SDS011;6246;50.826;4.712;2022-08-19T10:36:57;4.75;;;3.13;;
12363;SDS011;6246;50.826;4.712;2022-08-19T10:39:25;4.53;;;3.50;;
12363;SDS011;6246;50.826;4.712;2022-08-19T10:41:53;6.13;;;2.92;;
12363;SDS011;6246;50.826;4.712;2022-08-19T10:44:21;3.33;;;2.75;;
12363;SDS011;6246;50.826;4.712;2022-08-19T10:46:48;5.53;;;3.17;;
12363;SDS011;6246;50.826;4.712;2022-08-19T10:49:14;3.45;;;3.15;;
12363;SDS011;6246;50.826;4.712;2022-08-19T10:51:40;3.50;;;2.80;;
12363;SDS011;6246;50.826;4.712;2022-08-19T10:54:25;4.53;;;2.90;;
12363;SDS011;6246;50.826;4.712;2022-08-19T10:57:11;4.60;;;2.88;;
12363;SDS011;6246;50.826;4.712;2022-08-19T10:59:37;3.47;;;3.03;;
12363;SDS011;6246;50.826;4.712;2022-08-19T11:02:05;2.90;;;2.70;;
12363;SDS011;6246;50.826;4.712;2022-08-19T11:04:34;3.05;;;2.83;;
12363;SDS011;6246;50.826;4.712;2022-08-19T11:07:00;2.90;;;2.70;;
12363;SDS011;6246;50.826;4.712;2022-08-19T11:09:27;3.70;;;3.03;;
12363;SDS011;6246;50.826;4.712;2022-08-19T11:11:53;3.40;;;3.10;;
12363;SDS011;6246;50.826;4.712;2022-08-19T11:14:19;5.93;;;2.88;;
12363;SDS011;6246;50.826;4.712;2022-08-19T11:16:46;2.70;;;2.50;;
12363;SDS011;6246;50.826;4.712;2022-08-19T11:19:13;4.45;;;3.20;;
12363;SDS011;6246;50.826;4.712;2022-08-19T11:21:42;3.08;;;2.60;;
12363;SDS011;6246;50.826;4.712;2022-08-19T11:24:09;4.85;;;2.70;;
12363;SDS011;6246;50.826;4.712;2022-08-19T11:26:36;3.92;;;2.67;;
12363;SDS011;6246;50.826;4.712;2022-08-19T11:29:03;3.40;;;2.67;;
12363;SDS011;6246;50.826;4.712;2022-08-19T11:31:31;3.72;;;2.80;;
12363;SDS011;6246;50.826;4.712;2022-08-19T11:33:58;7.45;;;2.90;;
12363;SDS011;6246;50.826;4.712;2022-08-19T11:36:25;4.38;;;2.95;;
12363;SDS011;6246;50.826;4.712;2022-08-19T11:38:51;3.60;;;3.20;;
12363;SDS011;6246;50.826;4.712;2022-08-19T11:41:19;3.83;;;3.10;;
12363;SDS011;6246;50.826;4.712;2022-08-19T11:43:45;4.75;;;4.07;;
12363;SDS011;6246;50.826;4.712;2022-08-19T11:46:12;5.38;;;4.13;;
12363;SDS011;6246;50.826;4.712;2022-08-19T11:48:39;6.00;;;3.85;;
12363;SDS011;6246;50.826;4.712;2022-08-19T11:51:06;5.80;;;4.07;;
12363;SDS011;6246;50.826;4.712;2022-08-19T11:53:34;5.15;;;3.38;;
12363;SDS011;6246;50.826;4.712;2022-08-19T11:56:01;4.00;;;3.60;;
12363;SDS011;6246;50.826;4.712;2022-08-19T11:58:27;3.83;;;3.50;;
12363;SDS011;6246;50.826;4.712;2022-08-19T12:00:54;6.22;;;3.63;;
12363;SDS011;6246;50.826;4.712;2022-08-19T12:03:20;4.70;;;3.50;;
12363;SDS011;6246;50.826;4.712;2022-08-19T12:05:46;5.10;;;3.60;;
12363;SDS011;6246;50.826;4.712;2022-08-19T12:08:12;5.05;;;3.55;;
12363;SDS011;6246;50.826;4.712;2022-08-19T12:10:40;5.60;;;3.35;;
12363;SDS011;6246;50.826;4.712;2022-08-19T12:13:07;6.18;;;3.60;;
12363;SDS011;6246;50.826;4.712;2022-08-19T12:15:36;5.53;;;3.95;;
12363;SDS011;6246;50.826;4.712;2022-08-19T12:18:03;3.78;;;3.47;;
12363;SDS011;6246;50.826;4.712;2022-08-19T12:20:29;5.05;;;3.95;;
12363;SDS011;6246;50.826;4.712;2022-08-19T12:22:55;5.47;;;3.72;;
12363;SDS011;6246;50.826;4.712;2022-08-19T12:25:21;3.90;;;3.50;;
12363;SDS011;6246;50.826;4.712;2022-08-19T12:27:47;4.57;;;3.75;;
12363;SDS011;6246;50.826;4.712;2022-08-19T12:30:14;4.60;;;3.50;;
12363;SDS011;6246;50.826;4.712;2022-08-19T12:32:40;4.03;;;3.47;;
12363;SDS011;6246;50.826;4.712;2022-08-19T12:35:07;5.95;;;3.45;;
12363;SDS011;6246;50.826;4.712;2022-08-19T12:37:36;4.93;;;3.47;;
12363;SDS011;6246;50.826;4.712;2022-08-19T12:40:02;3.88;;;3.50;;
12363;SDS011;6246;50.826;4.712;2022-08-19T12:42:29;4.22;;;3.83;;
12363;SDS011;6246;50.826;4.712;2022-08-19T12:44:55;4.93;;;3.78;;
12363;SDS011;6246;50.826;4.712;2022-08-19T12:47:21;4.45;;;3.38;;
12363;SDS011;6246;50.826;4.712;2022-08-19T12:49:48;3.90;;;3.60;;
12363;SDS011;6246;50.826;4.712;2022-08-19T12:52:14;4.53;;;3.90;;
12363;SDS011;6246;50.826;4.712;2022-08-19T12:54:41;4.43;;;3.63;;
12363;SDS011;6246;50.826;4.712;2022-08-19T12:57:08;3.65;;;3.35;;
12363;SDS011;6246;50.826;4.712;2022-08-19T12:59:35;3.67;;;3.17;;
12363;SDS011;6246;50.826;4.712;2022-08-19T13:02:03;5.90;;;3.80;;
12363;SDS011;6246;50.826;4.712;2022-08-19T13:04:31;9.65;;;4.07;;
12363;SDS011;6246;50.826;4.712;2022-08-19T13:06:57;9.52;;;4.03;;
12363;SDS011;6246;50.826;4.712;2022-08-19T13:09:23;6.65;;;4.18;;
12363;SDS011;6246;50.826;4.712;2022-08-19T13:11:49;7.90;;;3.70;;
12363;SDS011;6246;50.826;4.712;2022-08-19T13:14:15;6.53;;;4.05;;
12363;SDS011;6246;50.826;4.712;2022-08-19T13:16:41;4.65;;;3.78;;
12363;SDS011;6246;50.826;4.712;2022-08-19T13:19:07;6.07;;;3.60;;
12363;SDS011;6246;50.826;4.712;2022-08-19T13:21:33;5.20;;;3.47;;
12363;SDS011;6246;50.826;4.712;2022-08-19T13:23:59;4.22;;;3.40;;
12363;SDS011;6246;50.826;4.712;2022-08-19T13:26:26;7.88;;;3.60;;
12363;SDS011;6246;50.826;4.712;2022-08-19T13:28:52;5.55;;;3.13;;
12363;SDS011;6246;50.826;4.712;2022-08-19T13:31:53;7.15;;;3.90;;
12363;SDS011;6246;50.826;4.712;2022-08-19T13:34:38;5.40;;;3.40;;
12363;SDS011;6246;50.826;4.712;2022-08-19T13:37:04;6.18;;;3.90;;
12363;SDS011;6246;50.826;4.712;2022-08-19T13:39:31;5.85;;;4.60;;
12363;SDS011;6246;50.826;4.712;2022-08-19T13:41:58;11.55;;;5.95;;
12363;SDS011;6246;50.826;4.712;2022-08-19T13:44:25;10.60;;;5.38;;
12363;SDS011;6246;50.826;4.712;2022-08-19T13:46:54;6.28;;;4.97;;
12363;SDS011;6246;50.826;4.712;2022-08-19T13:49:21;4.93;;;4.43;;
12363;SDS011;6246;50.826;4.712;2022-08-19T13:51:48;6.85;;;4.40;;
12363;SDS011;6246;50.826;4.712;2022-08-19T13:54:14;6.97;;;5.00;;
12363;SDS011;6246;50.826;4.712;2022-08-19T13:56:43;4.72;;;4.32;;
12363;SDS011;6246;50.826;4.712;2022-08-19T13:59:10;8.40;;;4.65;;
12363;SDS011;6246;50.826;4.712;2022-08-19T14:01:36;4.88;;;4.38;;
12363;SDS011;6246;50.826;4.712;2022-08-19T14:04:03;6.88;;;4.30;;
12363;SDS011;6246;50.826;4.712;2022-08-19T14:06:29;7.47;;;4.07;;
12363;SDS011;6246;50.826;4.712;2022-08-19T14:08:55;6.05;;;4.15;;
12363;SDS011;6246;50.826;4.712;2022-08-19T14:11:21;4.70;;;3.78;;
12363;SDS011;6246;50.826;4.712;2022-08-19T14:13:48;6.68;;;4.07;;
12363;SDS011;6246;50.826;4.712;2022-08-19T14:16:14;3.67;;;3.38;;
12363;SDS011;6246;50.826;4.712;2022-08-19T14:18:40;6.78;;;3.35;;
12363;SDS011;6246;50.826;4.712;2022-08-19T14:21:07;3.75;;;3.38;;
12363;SDS011;6246;50.826;4.712;2022-08-19T14:23:33;4.57;;;3.20;;
12363;SDS011;6246;50.826;4.712;2022-08-19T14:26:05;3.40;;;3.20;;
12363;SDS011;6246;50.826;4.712;2022-08-19T14:28:31;3.13;;;2.65;;
12363;SDS011;6246;50.826;4.712;2022-08-19T14:30:57;3.30;;;3.10;;
12363;SDS011;6246;50.826;4.712;2022-08-19T14:33:23;4.35;;;3.03;;
12363;SDS011;6246;50.826;4.712;2022-08-19T14:35:49;4.57;;;3.03;;
12363;SDS011;6246;50.826;4.712;2022-08-19T14:38:16;3.20;;;2.83;;
12363;SDS011;6246;50.826;4.712;2022-08-19T14:40:43;3.83;;;2.90;;
12363;SDS011;6246;50.826;4.712;2022-08-19T14:43:09;3.08;;;2.78;;
12363;SDS011;6246;50.826;4.712;2022-08-19T14:45:36;3.08;;;2.78;;
12363;SDS011;6246;50.826;4.712;2022-08-19T14:48:03;3.38;;;2.97;;
12363;SDS011;6246;50.826;4.712;2022-08-19T14:50:29;6.32;;;3.00;;
12363;SDS011;6246;50.826;4.712;2022-08-19T14:53:15;3.42;;;2.88;;
12363;SDS011;6246;50.826;4.712;2022-08-19T14:55:42;2.72;;;2.53;;
12363;SDS011;6246;50.826;4.712;2022-08-19T14:58:08;3.00;;;2.08;;
12363;SDS011;6246;50.826;4.712;2022-08-19T15:00:34;6.05;;;2.42;;